Time;durP1;ratioP1;P1;durP2;ratioP2;P2;SDS_P1;SDS_P2;PMS_P1;PMS_P2;Temp;Humidity;BMP_temperature;BMP_pressure;BME280_temperature;BME280_humidity;BME280_pressure;Samples;Min_cycle;Max_cycle;Signal;HPM_P1;HPM_P2
2023/03/25 00:04:34;;;;;;;1.52;0.80;;;;;;;17.76;57.94;99596.06;20759275;28;20042;-83
2023/03/25 00:14:36;;;;;;;1.30;0.75;;;;;;;17.61;57.71;99577.03;20739895;28;20130;-82
2023/03/25 00:24:37;;;;;;;1.60;0.80;;;;;;;17.42;57.44;99545.91;20754181;28;20048;-83
2023/03/25 00:34:40;;;;;;;1.45;0.70;;;;;;;17.73;57.34;99588.31;20750357;28;20050;-83
2023/03/25 00:44:42;;;;;;;1.98;0.75;;;;;;;17.66;57.34;99573.81;20750441;28;20042;-83
2023/03/25 00:54:44;;;;;;;2.53;0.70;;;;;;;17.75;57.34;99577.38;20749521;28;20117;-83
2023/03/25 01:04:48;;;;;;;2.95;0.88;;;;;;;17.75;57.29;99578.22;20728433;28;20511;-83
2023/03/25 01:14:50;;;;;;;1.65;0.82;;;;;;;17.75;57.46;99566.59;20744701;28;20041;-83
2023/03/25 01:24:51;;;;;;;1.63;0.70;;;;;;;17.75;57.37;99566.59;20747436;28;20042;-83
2023/03/25 01:34:53;;;;;;;1.45;0.73;;;;;;;17.75;57.43;99563.91;20742160;28;20133;-83
2023/03/25 01:45:19;;;;;;;0.98;0.70;;;;;;;17.74;57.58;99573.00;20750503;28;20053;-83
2023/03/25 01:55:20;;;;;;;;;;;;;;;17.75;57.59;99577.38;20749687;28;20046;-84
2023/03/25 02:05:54;;;;;;;2.22;0.98;;;;;;;17.71;57.66;99566.13;20748128;28;19922;-83
2023/03/25 02:16:28;;;;;;;1.45;0.65;;;;;;;17.73;57.76;99571.31;20723100;28;20141;-83
2023/03/25 02:27:13;;;;;;;1.15;0.65;;;;;;;17.72;57.88;99573.19;20746050;28;20088;-83
2023/03/25 02:37:47;;;;;;;2.87;0.90;;;;;;;17.71;57.85;99571.50;20675867;28;20619;-83
2023/03/25 02:48:02;;;;;;;1.80;0.80;;;;;;;17.69;57.79;99571.66;20720840;28;20506;-82
2023/03/25 02:58:08;;;;;;;2.78;0.98;;;;;;;17.71;57.74;99571.50;20705368;28;20061;-83
2023/03/25 03:08:30;;;;;;;3.40;0.95;;;;;;;17.71;57.90;99554.50;20726555;28;20080;-83
2023/03/25 03:18:57;;;;;;;1.58;0.70;;;;;;;17.71;57.81;99543.72;20715805;28;20054;-83
2023/03/25 03:29:27;;;;;;;1.80;0.65;;;;;;;17.70;57.78;99542.91;20670027;28;20430;-83
2023/03/25 03:39:31;;;;;;;3.17;0.95;;;;;;;17.71;57.71;99549.09;20744575;28;20064;-82
2023/03/25 03:49:46;;;;;;;1.92;0.90;;;;;;;17.70;57.64;99532.13;20722799;28;20484;-83
2023/03/25 04:00:06;;;;;;;1.43;0.73;;;;;;;17.67;57.63;99527.06;20730781;28;20129;-83
2023/03/25 04:10:22;;;;;;;1.90;0.80;;;;;;;17.67;57.58;99544.06;20727791;28;20045;-83
2023/03/25 04:20:24;;;;;;;3.25;1.00;;;;;;;17.68;57.60;99545.75;20734567;28;20057;-83
2023/03/25 04:30:29;;;;;;;2.20;0.90;;;;;;;17.63;57.58;99537.34;20730569;28;20057;-83
2023/03/25 04:40:31;;;;;;;3.28;1.48;;;;;;;17.66;57.66;99531.63;20732959;28;20050;-83
2023/03/25 04:50:33;;;;;;;3.90;1.60;;;;;;;17.32;57.42;99477.97;20728346;28;20050;-83
2023/03/25 05:00:35;;;;;;;2.63;1.00;;;;;;;17.67;57.37;99510.91;20746573;28;20080;-83
2023/03/25 05:10:37;;;;;;;1.63;0.80;;;;;;;17.65;57.52;99508.41;20711842;28;20060;-83
2023/03/25 05:20:41;;;;;;;2.05;0.80;;;;;;;17.66;57.45;99525.38;20727771;28;20061;-82
2023/03/25 05:30:44;;;;;;;2.72;1.10;;;;;;;17.65;57.32;99524.56;20748230;28;20482;-83
2023/03/25 05:40:47;;;;;;;1.63;0.90;;;;;;;17.61;57.19;99538.50;20738538;28;20038;-83
2023/03/25 05:50:49;;;;;;;1.33;0.75;;;;;;;17.63;57.50;99539.16;20743970;28;20046;-83
2023/03/25 06:00:51;;;;;;;1.83;0.73;;;;;;;17.51;57.41;99520.69;20739676;28;20038;-83
2023/03/25 06:10:57;;;;;;;2.08;0.80;;;;;;;17.65;57.40;99556.00;20739838;28;20149;-83
2023/03/25 06:20:59;;;;;;;1.10;0.65;;;;;;;17.58;57.30;99552.28;20738349;28;20046;-83
2023/03/25 06:31:05;;;;;;;2.13;0.80;;;;;;;17.64;57.33;99555.16;20713991;28;20395;-83
2023/03/25 06:41:07;;;;;;;2.15;0.60;;;;;;;17.47;57.37;99532.78;20735513;28;20046;-83
2023/03/25 06:51:11;;;;;;;2.33;1.00;;;;;;;17.59;57.43;99532.44;20705821;28;20077;-82
2023/03/25 07:01:12;;;;;;;1.45;0.70;;;;;;;17.74;57.55;99555.00;20723143;28;20503;-86
2023/03/25 07:11:16;;;;;;;1.20;0.68;;;;;;;17.78;57.40;99550.97;20725265;28;20046;-85
2023/03/25 07:21:18;;;;;;;2.97;0.80;;;;;;;17.84;57.36;99544.06;20718041;28;20121;-83
2023/03/25 07:31:20;;;;;;;1.58;0.60;;;;;;;17.89;57.49;99551.63;20738024;28;20049;-84
2023/03/25 07:41:23;;;;;;;1.85;0.80;;;;;;;17.88;57.46;99544.56;20714186;28;20041;-83
2023/03/25 07:51:43;;;;;;;1.00;0.52;;;;;;;17.74;57.46;99536.16;20717607;28;20463;-86
2023/03/25 08:01:44;;;;;;;1.73;0.80;;;;;;;17.86;57.44;99590.50;20733186;28;20113;-86
2023/03/25 08:11:47;;;;;;;2.05;0.63;;;;;;;17.84;57.56;99573.66;20743992;28;21946;-88
2023/03/25 08:21:49;;;;;;;1.60;0.88;;;;;;;17.82;57.60;99573.00;20705473;28;20046;-89
2023/03/25 08:31:51;;;;;;;2.58;0.98;;;;;;;17.86;58.04;99574.34;20739878;28;20050;-88
2023/03/25 08:41:53;;;;;;;1.75;0.70;;;;;;;17.88;58.92;99593.03;20721348;28;20048;-91
2023/03/25 08:51:57;;;;;;;3.25;1.15;;;;;;;17.61;59.97;99536.66;20726546;28;20041;-91
2023/03/25 09:01:58;;;;;;;3.08;1.00;;;;;;;17.93;60.31;99582.59;20754651;28;20541;-91
2023/03/25 09:12:02;;;;;;;1.63;0.88;;;;;;;17.89;60.40;99578.56;20735914;28;20082;-91
2023/03/25 09:22:05;;;;;;;5.13;1.27;;;;;;;17.94;60.23;99592.34;20754077;28;20120;-91
2023/03/25 09:32:09;;;;;;;2.95;1.27;;;;;;;17.89;60.03;99600.91;20733780;28;20064;-91
2023/03/25 09:42:29;;;;;;;2.70;1.23;;;;;;;17.96;60.02;99607.34;20750617;28;20482;-91
2023/03/25 09:52:36;;;;;;;3.47;1.30;;;;;;;17.97;59.76;99609.03;20750694;28;20046;-90
2023/03/25 10:03:16;;;;;;;3.95;1.30;;;;;;;17.96;59.67;99617.25;20749002;28;20049;-92
2023/03/25 10:13:45;;;;;;;2.40;1.13;;;;;;;17.98;59.79;99631.38;20727990;28;20528;-91
2023/03/25 10:23:55;;;;;;;2.80;1.27;;;;;;;17.98;59.62;99632.25;20738786;28;20066;-92
2023/03/25 10:34:00;;;;;;;3.00;1.40;;;;;;;17.98;59.52;99624.16;20747098;28;20130;-92
2023/03/25 10:44:11;;;;;;;3.33;1.20;;;;;;;17.90;59.57;99634.09;20729890;28;20505;-92
2023/03/25 10:54:15;;;;;;;2.22;0.80;;;;;;;17.99;59.16;99627.69;20727627;28;20104;-91
2023/03/25 11:04:18;;;;;;;2.63;1.05;;;;;;;17.95;59.13;99616.44;20742940;28;20113;-91
2023/03/25 11:14:23;;;;;;;3.55;1.27;;;;;;;17.98;59.03;99628.69;20706640;28;20046;-90
2023/03/25 11:24:39;;;;;;;5.10;1.00;;;;;;;18.02;58.88;99631.94;20743713;28;20520;-91
2023/03/25 11:34:46;;;;;;;4.90;1.38;;;;;;;17.86;58.82;99609.34;20745043;28;20375;-91
2023/03/25 11:44:52;;;;;;;3.85;1.45;;;;;;;18.03;58.54;99630.94;20710157;28;20057;-90
2023/03/25 11:54:54;;;;;;;3.72;1.50;;;;;;;18.03;58.52;99620.97;20723939;28;20056;-87
2023/03/25 12:05:02;;;;;;;2.45;1.05;;;;;;;18.02;58.47;99616.59;20706828;28;20049;-92
2023/03/25 12:15:24;;;;;;;2.40;0.98;;;;;;;17.96;58.17;99617.25;20807252;22;20471;-94
2023/03/25 12:25:38;;;;;;;3.53;1.25;;;;;;;17.89;57.93;99616.25;20688245;28;20089;-93
2023/03/25 12:36:06;;;;;;;2.63;1.33;;;;;;;17.88;57.95;99609.19;20565338;28;20050;-88
2023/03/25 12:46:38;;;;;;;3.08;1.13;;;;;;;17.86;58.09;99593.19;20546447;28;20074;-90
2023/03/25 12:57:19;;;;;;;4.45;1.50;;;;;;;17.86;58.18;99595.88;20561049;28;20030;-91
2023/03/25 13:07:24;;;;;;;2.95;1.20;;;;;;;17.85;58.17;99590.69;20555370;28;20412;-88
2023/03/25 13:17:43;;;;;;;2.78;1.15;;;;;;;17.76;57.84;99584.44;20547363;28;20133;-91
2023/03/25 13:27:47;;;;;;;3.20;1.20;;;;;;;17.65;57.79;99556.84;20604353;28;20058;-88
2023/03/25 13:37:55;;;;;;;3.45;1.10;;;;;;;17.85;57.63;99588.81;20594985;28;20057;-87
2023/03/25 13:48:22;;;;;;;2.67;1.08;;;;;;;17.85;57.46;99567.28;20544295;28;20102;-91
2023/03/25 13:58:40;;;;;;;4.57;1.65;;;;;;;17.85;57.15;99585.28;20548745;28;20138;-88
2023/03/25 14:08:57;;;;;;;3.47;1.05;;;;;;;17.83;57.13;99591.69;20562076;28;20066;-89
2023/03/25 14:19:02;;;;;;;3.47;1.52;;;;;;;17.82;56.79;99590.00;20580854;28;20049;-90
2023/03/25 14:29:18;;;;;;;3.10;1.17;;;;;;;17.65;56.80;99580.22;20596141;28;20062;-90
2023/03/25 14:39:29;;;;;;;1.92;1.10;;;;;;;17.77;57.01;99656.97;20576208;28;20046;-89
2023/03/25 14:50:22;;;;;;;5.55;2.05;;;;;;;17.76;57.05;99687.59;20594259;28;20051;-88
2023/03/25 15:00:28;;;;;;;2.03;0.93;;;;;;;17.77;57.16;99683.03;20564272;28;20776;-88
2023/03/25 15:10:35;;;;;;;2.08;0.80;;;;;;;17.75;57.38;99680.50;20582579;28;20057;-90
2023/03/25 15:20:39;;;;;;;2.50;1.27;;;;;;;17.49;57.56;99616.88;20588555;28;20027;-92
2023/03/25 15:31:00;;;;;;;2.25;0.80;;;;;;;17.67;57.67;99657.09;20562752;28;20053;-91
2023/03/25 15:41:24;;;;;;;3.13;1.25;;;;;;;17.75;57.60;99674.28;20558370;28;20043;-87
2023/03/25 15:52:03;;;;;;;1.55;0.85;;;;;;;17.76;57.72;99697.50;20558272;28;20057;-88
2023/03/25 16:02:13;;;;;;;1.73;0.80;;;;;;;17.76;57.86;99692.97;20560092;28;22163;-85
2023/03/25 16:12:22;;;;;;;1.65;0.70;;;;;;;17.62;57.73;99685.50;20562475;28;20586;-85
2023/03/25 16:22:32;;;;;;;1.75;0.75;;;;;;;17.76;57.74;99713.63;20549441;28;20390;-83
2023/03/25 16:32:35;;;;;;;1.27;0.60;;;;;;;17.75;57.70;99739.72;20545715;28;20065;-86
2023/03/25 16:42:36;;;;;;;2.97;0.93;;;;;;;17.74;57.85;99745.28;20550913;28;20440;-84
2023/03/25 16:52:38;;;;;;;1.17;0.60;;;;;;;17.72;58.01;99752.66;20573388;28;20047;-83
2023/03/25 17:02:42;;;;;;;1.55;0.70;;;;;;;17.70;57.97;99777.06;20599338;28;20039;-82
2023/03/25 17:12:48;;;;;;;1.52;0.77;;;;;;;17.70;58.12;99790.53;20600636;28;20582;-82
2023/03/25 17:22:58;;;;;;;1.92;0.80;;;;;;;17.69;58.18;99811.19;20526586;28;20038;-86
2023/03/25 17:33:09;;;;;;;2.42;0.77;;;;;;;17.71;58.61;99840.66;20543852;28;20046;-87
2023/03/25 17:43:18;;;;;;;2.22;0.80;;;;;;;17.69;58.52;99858.81;20542929;28;20034;-90
2023/03/25 17:53:20;;;;;;;2.95;1.10;;;;;;;17.67;58.45;99875.13;20560917;28;20055;-91
2023/03/25 18:03:22;;;;;;;2.85;0.80;;;;;;;17.49;58.42;99864.41;20580845;28;20057;-91
2023/03/25 18:13:24;;;;;;;2.63;1.00;;;;;;;17.66;58.17;99908.44;20565789;28;21816;-87
2023/03/25 18:23:27;;;;;;;2.45;0.80;;;;;;;17.60;58.15;99902.81;20553961;28;20043;-88
2023/03/25 18:33:32;;;;;;;2.15;0.80;;;;;;;17.63;58.15;99935.66;20555602;28;20050;-87
2023/03/25 18:43:34;;;;;;;2.05;0.75;;;;;;;17.53;57.97;99925.00;20569892;28;20049;-79
2023/03/25 18:53:36;;;;;;;3.58;1.15;;;;;;;17.60;57.87;99949.44;20561319;28;20058;-81
2023/03/25 19:03:40;;;;;;;3.63;1.10;;;;;;;17.63;58.03;99967.09;20574419;28;20046;-81
2023/03/25 19:13:42;;;;;;;2.28;1.17;;;;;;;17.62;57.70;99995.00;20580322;28;20057;-81
2023/03/25 19:23:45;;;;;;;2.42;0.90;;;;;;;17.61;57.83;99998.72;20584448;28;20395;-81
2023/03/25 19:33:46;;;;;;;1.95;0.70;;;;;;;17.61;57.87;100012.16;20590433;28;20090;-82
2023/03/25 19:43:48;;;;;;;3.95;1.10;;;;;;;17.60;57.76;100016.72;20592056;28;20105;-81
2023/03/25 19:53:50;;;;;;;2.75;1.30;;;;;;;17.60;57.84;100024.78;20571218;28;20118;-82
2023/03/25 20:03:52;;;;;;;3.05;1.15;;;;;;;17.59;57.76;100024.94;20590342;28;20074;-82
2023/03/25 20:13:54;;;;;;;2.28;1.17;;;;;;;17.57;57.83;100024.25;20593363;28;20043;-82
2023/03/25 20:23:56;;;;;;;3.60;1.13;;;;;;;17.46;57.88;100018.13;20587984;28;20055;-82
2023/03/25 20:33:58;;;;;;;3.00;1.10;;;;;;;17.57;57.46;100038.56;20565813;28;20129;-82
2023/03/25 20:44:00;;;;;;;3.53;1.10;;;;;;;17.57;57.45;100054.72;20588953;28;20061;-82
2023/03/25 20:54:02;;;;;;;2.17;0.90;;;;;;;17.56;57.36;100053.03;20587099;28;20149;-82
2023/03/25 21:04:05;;;;;;;1.52;0.80;;;;;;;17.53;57.33;100045.25;20567166;28;20050;-82
2023/03/25 21:14:06;;;;;;;2.28;0.80;;;;;;;17.56;57.13;100057.53;20565676;28;20144;-82
2023/03/25 21:24:08;;;;;;;3.35;1.10;;;;;;;17.56;57.18;100071.88;20578641;28;20039;-82
2023/03/25 21:34:14;;;;;;;2.70;0.75;;;;;;;17.45;57.08;100059.47;20565613;28;20510;-82
2023/03/25 21:44:16;;;;;;;3.15;1.33;;;;;;;17.54;57.05;100088.16;20569851;28;20047;-82
2023/03/25 21:54:18;;;;;;;2.85;0.98;;;;;;;17.54;57.10;100103.47;20584780;28;20054;-82
2023/03/25 22:04:19;;;;;;;2.75;0.90;;;;;;;17.53;57.17;100102.59;20570369;28;20079;-82
2023/03/25 22:14:21;;;;;;;2.60;0.90;;;;;;;17.53;57.07;100123.31;20582049;28;20049;-81
2023/03/25 22:24:23;;;;;;;2.42;0.90;;;;;;;17.47;57.08;100127.44;20584893;28;20509;-82
2023/03/25 22:34:27;;;;;;;1.77;0.95;;;;;;;17.53;57.00;100150.22;20583047;28;20047;-81
2023/03/25 22:44:29;;;;;;;2.10;1.00;;;;;;;17.39;56.99;100138.13;20585352;28;20046;-81
2023/03/25 22:54:30;;;;;;;1.98;0.60;;;;;;;17.46;56.97;100160.72;20579429;28;20047;-81
2023/03/25 23:04:32;;;;;;;2.55;0.80;;;;;;;17.52;56.90;100181.66;20582199;28;20121;-81
2023/03/25 23:14:35;;;;;;;4.10;1.10;;;;;;;17.47;57.05;100183.94;20579811;28;20057;-81
2023/03/25 23:24:37;;;;;;;2.20;1.02;;;;;;;17.52;56.97;100191.59;20580037;28;20050;-82
2023/03/25 23:34:39;;;;;;;2.28;1.02;;;;;;;17.50;56.81;100197.09;20551352;28;20055;-82
2023/03/25 23:44:40;;;;;;;2.10;1.02;;;;;;;17.50;56.97;100205.16;20567711;28;20051;-81
2023/03/25 23:54:43;;;;;;;3.22;1.30;;;;;;;17.50;56.86;100202.47;20563475;28;20557;-81
